»·PEaware :: N442SA KSNA-KSBA

N442SA :: KSNA-KSBA

FLIGHT INFORMATION

Flight Status: Arrived
Operator: Privately registered:
United States
More flights under this callsign
Pilot: Anonymous 2576 (2576)
Aircraft: PIPER PA-44 SEMINOLE
(PA44)
More flights by this aircraft type
Origin: KSNA John Wayne-Orange Co
United States
Destination: KSBA Santa Barbara Mun
United States
More flights between these airports :: More routes between these airports
Route: +SLI V23 LAX V299 VTU VTU282R KWANG
File this flight plan on PilotEdge
Remarks: CSTP21
Altitude:
(Current/Filed)
6,000ft
Speed:
(Current/Filed)
150kts
Departed: 29-Nov-19 10:34 AM
Arrived: 29-Nov-19 11:25 AM
Distance/Time
Traveled:
108nm/0:51
Distance/Time
To Go:
Arrived

Flight Plot

Page will automatically refresh every two minutes.


Map Options




Map Legend


Flown Route
Filed Route
Departure Airport
Arrival Airport
Navaid (VOR, NDB)
Fix

Horizontal Profiles

Position Reports

Time Latitude Longitude Heading Altitude Ground
Speed
29-Nov-19 10:06 33.666424 -117.873058 219 59ft 0kts
29-Nov-19 10:07 33.666423 -117.873059 219 59ft 0kts
29-Nov-19 10:08 33.666422 -117.873060 219 59ft 0kts
29-Nov-19 10:09 33.666421 -117.873061 219 59ft 0kts
29-Nov-19 10:10 33.666419 -117.873062 219 59ft 0kts
29-Nov-19 10:11 33.666418 -117.873064 219 59ft 0kts
29-Nov-19 10:12 33.666417 -117.873065 219 59ft 0kts
29-Nov-19 10:13 33.666416 -117.873066 219 59ft 0kts
29-Nov-19 10:14 33.666415 -117.873067 219 59ft 0kts
29-Nov-19 10:15 33.666414 -117.873068 219 59ft 0kts
29-Nov-19 10:16 33.666459 -117.873453 332 59ft 9kts
29-Nov-19 10:17 33.666659 -117.873541 343 59ft 0kts
29-Nov-19 10:18 33.666660 -117.873541 343 59ft 0kts
29-Nov-19 10:19 33.666813 -117.873369 75 59ft 4kts
29-Nov-19 10:20 33.666888 -117.873202 47 59ft 0kts
29-Nov-19 10:21 33.667579 -117.872929 318 59ft 3kts
29-Nov-19 10:22 33.667631 -117.873025 295 59ft 0kts
29-Nov-19 10:23 33.668309 -117.874594 312 59ft 8kts
29-Nov-19 10:24 33.670457 -117.873649 23 59ft 10kts
29-Nov-19 10:25 33.672785 -117.872272 26 59ft 8kts
29-Nov-19 10:26 33.674872 -117.871015 34 59ft 8kts
29-Nov-19 10:27 33.676802 -117.869780 26 59ft 7kts
29-Nov-19 10:28 33.678779 -117.868739 26 59ft 7kts
29-Nov-19 10:29 33.680713 -117.867542 28 59ft 7kts
29-Nov-19 10:30 33.681336 -117.866947 203 59ft 11kts
29-Nov-19 10:31 33.680928 -117.866610 113 59ft 0kts
29-Nov-19 10:32 33.680927 -117.866608 113 59ft 0kts
29-Nov-19 10:33 33.678963 -117.866739 207 59ft 46kts
29-Nov-19 10:34 33.658768 -117.884332 233 1126ft 100kts
29-Nov-19 10:35 33.641038 -117.911002 226 2420ft 102kts
29-Nov-19 10:36 33.640834 -117.940692 331 3438ft 107kts
29-Nov-19 10:37 33.669728 -117.945610 353 4451ft 104kts
29-Nov-19 10:38 33.699240 -117.949633 352 5331ft 108kts
29-Nov-19 10:39 33.729279 -117.955034 353 5962ft 125kts
29-Nov-19 10:40 33.766985 -117.962026 349 5975ft 151kts
29-Nov-19 10:41 33.784271 -118.001262 265 5998ft 153kts
29-Nov-19 10:42 33.782253 -118.052258 268 5912ft 158kts
29-Nov-19 10:43 33.783923 -118.103086 279 6032ft 147kts
29-Nov-19 10:44 33.795896 -118.151060 300 5954ft 154kts
29-Nov-19 10:45 33.817116 -118.194528 290 5979ft 151kts
29-Nov-19 10:46 33.829722 -118.242813 286 5908ft 157kts
29-Nov-19 10:47 33.839693 -118.292002 283 6017ft 149kts
29-Nov-19 10:48 33.849851 -118.340957 288 5943ft 152kts
29-Nov-19 10:49 33.878379 -118.376997 319 6034ft 143kts
29-Nov-19 10:50 33.911270 -118.408385 320 5957ft 157kts
29-Nov-19 10:51 33.941683 -118.444130 293 5958ft 155kts
29-Nov-19 10:52 33.948302 -118.494434 286 5985ft 153kts
29-Nov-19 10:53 33.962628 -118.542567 287 5952ft 154kts
29-Nov-19 10:54 33.973784 -118.591751 287 5944ft 153kts
29-Nov-19 10:55 33.987399 -118.638941 288 6019ft 151kts
29-Nov-19 10:56 34.000736 -118.686532 283 5966ft 154kts
29-Nov-19 10:57 34.012043 -118.734983 291 5988ft 149kts
29-Nov-19 10:58 34.027060 -118.781305 288 6017ft 145kts
29-Nov-19 10:59 34.044828 -118.825570 298 5989ft 147kts
29-Nov-19 11:00 34.064076 -118.868753 295 5977ft 148kts
29-Nov-19 11:01 34.078731 -118.915353 285 5920ft 149kts
29-Nov-19 11:02 34.092162 -118.960702 292 6011ft 142kts
29-Nov-19 11:03 34.104443 -119.006129 290 6065ft 137kts
29-Nov-19 11:04 34.119196 -119.050316 296 6027ft 141kts
29-Nov-19 11:05 34.135646 -119.093722 298 5998ft 143kts
29-Nov-19 11:06 34.153332 -119.136501 296 5976ft 142kts
29-Nov-19 11:07 34.172935 -119.177787 302 5992ft 138kts
29-Nov-19 11:08 34.191338 -119.219178 294 5884ft 145kts
29-Nov-19 11:09 34.208161 -119.261178 297 5960ft 139kts
29-Nov-19 11:11 34.224275 -119.301641 292 6103ft 130kts
29-Nov-19 11:12 34.240424 -119.342881 294 6003ft 137kts
29-Nov-19 11:13 34.257478 -119.384202 298 5878ft 145kts
29-Nov-19 11:14 34.276077 -119.429397 297 5412ft 154kts
29-Nov-19 11:15 34.296178 -119.476969 296 4355ft 161kts
29-Nov-19 11:16 34.314458 -119.527371 292 3930ft 167kts
29-Nov-19 11:17 34.330907 -119.576748 293 3916ft 149kts
29-Nov-19 11:18 34.349157 -119.625392 291 3315ft 149kts
29-Nov-19 11:19 34.365687 -119.668850 292 2616ft 131kts
29-Nov-19 11:20 34.380957 -119.708624 297 2140ft 117kts
29-Nov-19 11:21 34.395240 -119.743786 293 2147ft 114kts
29-Nov-19 11:22 34.407733 -119.778496 291 1730ft 103kts
29-Nov-19 11:23 34.420851 -119.810490 296 799ft 107kts
29-Nov-19 11:24 34.427790 -119.839705 268 13ft 53kts
29-Nov-19 11:25 34.427936 -119.846297 330 13ft 2kts
29-Nov-19 11:26 34.428817 -119.845662 345 13ft 0kts
29-Nov-19 11:27 34.428817 -119.845662 345 13ft 0kts
29-Nov-19 11:28 34.428817 -119.845662 345 13ft 0kts

Navigation Log

Ident Type
Flight plan parsing failed, navigation log unavailable